sensor_id;sensor_type;location;lat;lon;timestamp;pressure;altitude;pressure_sealevel;temperature;humidity
66681;BME280;53575;51.366;12.350;2022-10-20T00:00:56;101246.94;;;6.27;100.00
66681;BME280;53575;51.366;12.350;2022-10-20T00:03:23;101252.56;;;6.44;100.00
66681;BME280;53575;51.366;12.350;2022-10-20T00:05:49;101246.28;;;6.35;100.00
66681;BME280;53575;51.366;12.350;2022-10-20T00:08:15;101239.81;;;6.18;100.00
66681;BME280;53575;51.366;12.350;2022-10-20T00:10:40;101243.56;;;5.98;100.00
66681;BME280;53575;51.366;12.350;2022-10-20T00:13:06;101237.50;;;5.97;100.00
66681;BME280;53575;51.366;12.350;2022-10-20T00:15:31;101240.69;;;5.89;100.00
66681;BME280;53575;51.366;12.350;2022-10-20T00:17:56;101239.31;;;6.00;100.00
66681;BME280;53575;51.366;12.350;2022-10-20T00:20:22;101239.59;;;6.10;100.00
66681;BME280;53575;51.366;12.350;2022-10-20T00:22:47;101239.75;;;6.17;100.00
66681;BME280;53575;51.366;12.350;2022-10-20T00:25:13;101243.53;;;5.96;100.00
66681;BME280;53575;51.366;12.350;2022-10-20T00:27:38;101244.06;;;6.16;100.00
66681;BME280;53575;51.366;12.350;2022-10-20T00:30:04;101242.06;;;6.39;100.00
66681;BME280;53575;51.366;12.350;2022-10-20T00:32:29;101234.94;;;6.32;100.00
66681;BME280;53575;51.366;12.350;2022-10-20T00:34:55;101231.72;;;6.07;100.00
66681;BME280;53575;51.366;12.350;2022-10-20T00:37:21;101230.41;;;6.23;100.00
66681;BME280;53575;51.366;12.350;2022-10-20T00:39:46;101221.38;;;6.09;100.00
66681;BME280;53575;51.366;12.350;2022-10-20T00:42:16;101225.66;;;6.07;100.00
66681;BME280;53575;51.366;12.350;2022-10-20T00:44:53;101227.31;;;6.05;100.00
66681;BME280;53575;51.366;12.350;2022-10-20T00:47:55;101220.59;;;6.12;100.00
66681;BME280;53575;51.366;12.350;2022-10-20T00:50:26;101219.75;;;6.14;100.00
66681;BME280;53575;51.366;12.350;2022-10-20T00:52:54;101217.22;;;6.16;100.00
66681;BME280;53575;51.366;12.350;2022-10-20T00:55:26;101212.47;;;6.32;100.00
66681;BME280;53575;51.366;12.350;2022-10-20T00:57:53;101202.94;;;6.31;100.00
66681;BME280;53575;51.366;12.350;2022-10-20T01:00:20;101203.19;;;6.07;100.00
66681;BME280;53575;51.366;12.350;2022-10-20T01:02:45;101202.25;;;5.75;100.00
66681;BME280;53575;51.366;12.350;2022-10-20T01:05:12;101194.53;;;6.08;100.00
66681;BME280;53575;51.366;12.350;2022-10-20T01:07:38;101192.47;;;6.28;100.00
66681;BME280;53575;51.366;12.350;2022-10-20T01:10:04;101194.06;;;6.23;100.00
66681;BME280;53575;51.366;12.350;2022-10-20T01:18:09;101187.97;;;5.58;100.00
66681;BME280;53575;51.366;12.350;2022-10-20T01:21:02;101180.34;;;5.64;100.00
66681;BME280;53575;51.366;12.350;2022-10-20T01:29:32;101170.94;;;5.68;100.00
66681;BME280;53575;51.366;12.350;2022-10-20T01:32:07;101168.06;;;5.89;100.00
66681;BME280;53575;51.366;12.350;2022-10-20T01:37:14;101161.22;;;5.60;100.00
66681;BME280;53575;51.366;12.350;2022-10-20T01:39:59;101150.06;;;5.31;100.00
66681;BME280;53575;51.366;12.350;2022-10-20T01:42:27;101142.72;;;5.47;100.00
66681;BME280;53575;51.366;12.350;2022-10-20T01:44:58;101137.84;;;5.59;100.00
66681;BME280;53575;51.366;12.350;2022-10-20T01:47:25;101127.88;;;5.73;100.00
66681;BME280;53575;51.366;12.350;2022-10-20T01:49:52;101135.22;;;5.89;100.00
66681;BME280;53575;51.366;12.350;2022-10-20T01:52:20;101126.50;;;5.87;100.00
66681;BME280;53575;51.366;12.350;2022-10-20T01:54:46;101129.75;;;5.80;100.00
66681;BME280;53575;51.366;12.350;2022-10-20T01:57:32;101118.28;;;5.70;100.00
66681;BME280;53575;51.366;12.350;2022-10-20T02:00:07;101115.13;;;5.82;100.00
66681;BME280;53575;51.366;12.350;2022-10-20T02:05:29;101103.47;;;5.98;100.00
66681;BME280;53575;51.366;12.350;2022-10-20T02:08:12;101106.22;;;6.04;100.00
66681;BME280;53575;51.366;12.350;2022-10-20T02:10:44;101101.41;;;5.86;100.00
66681;BME280;53575;51.366;12.350;2022-10-20T02:13:11;101106.94;;;5.98;100.00
66681;BME280;53575;51.366;12.350;2022-10-20T02:15:41;101098.28;;;5.98;100.00
66681;BME280;53575;51.366;12.350;2022-10-20T02:18:10;101095.84;;;6.04;100.00
66681;BME280;53575;51.366;12.350;2022-10-20T02:20:40;101087.25;;;5.73;100.00
66681;BME280;53575;51.366;12.350;2022-10-20T02:23:07;101079.78;;;5.85;100.00
66681;BME280;53575;51.366;12.350;2022-10-20T02:25:34;101077.59;;;6.01;100.00
66681;BME280;53575;51.366;12.350;2022-10-20T02:28:02;101069.03;;;6.05;100.00
66681;BME280;53575;51.366;12.350;2022-10-20T02:30:29;101072.50;;;5.72;100.00
66681;BME280;53575;51.366;12.350;2022-10-20T02:32:55;101066.91;;;5.90;100.00
66681;BME280;53575;51.366;12.350;2022-10-20T02:35:25;101067.06;;;5.95;100.00
66681;BME280;53575;51.366;12.350;2022-10-20T02:37:51;101066.28;;;5.99;100.00
66681;BME280;53575;51.366;12.350;2022-10-20T02:40:16;101063.66;;;5.96;100.00
66681;BME280;53575;51.366;12.350;2022-10-20T02:42:41;101055.88;;;5.96;100.00
66681;BME280;53575;51.366;12.350;2022-10-20T02:45:08;101033.34;;;5.95;100.00
66681;BME280;53575;51.366;12.350;2022-10-20T02:47:34;101068.19;;;6.06;100.00
66681;BME280;53575;51.366;12.350;2022-10-20T02:49:59;101071.38;;;5.94;100.00
66681;BME280;53575;51.366;12.350;2022-10-20T02:52:25;101074.75;;;5.92;100.00
66681;BME280;53575;51.366;12.350;2022-10-20T02:54:51;101079.28;;;5.66;100.00
66681;BME280;53575;51.366;12.350;2022-10-20T02:57:16;101083.53;;;5.63;100.00
66681;BME280;53575;51.366;12.350;2022-10-20T02:59:41;101076.78;;;5.70;100.00
66681;BME280;53575;51.366;12.350;2022-10-20T03:02:07;101078.97;;;5.55;100.00
66681;BME280;53575;51.366;12.350;2022-10-20T03:04:32;101077.16;;;5.51;100.00
66681;BME280;53575;51.366;12.350;2022-10-20T03:06:57;101066.22;;;5.62;100.00
66681;BME280;53575;51.366;12.350;2022-10-20T03:09:23;101063.81;;;5.70;100.00
66681;BME280;53575;51.366;12.350;2022-10-20T03:11:48;101069.03;;;5.72;100.00
66681;BME280;53575;51.366;12.350;2022-10-20T03:14:13;101067.28;;;5.69;100.00
66681;BME280;53575;51.366;12.350;2022-10-20T03:16:39;101064.91;;;5.78;100.00
66681;BME280;53575;51.366;12.350;2022-10-20T03:19:04;101065.53;;;5.70;100.00
66681;BME280;53575;51.366;12.350;2022-10-20T03:21:29;101058.66;;;5.72;100.00
66681;BME280;53575;51.366;12.350;2022-10-20T03:23:55;101066.41;;;5.69;100.00
66681;BME280;53575;51.366;12.350;2022-10-20T03:26:20;101065.44;;;5.65;100.00
66681;BME280;53575;51.366;12.350;2022-10-20T03:28:45;101069.22;;;5.78;100.00
66681;BME280;53575;51.366;12.350;2022-10-20T03:31:11;101070.16;;;5.81;100.00
66681;BME280;53575;51.366;12.350;2022-10-20T03:33:36;101064.13;;;5.82;100.00
66681;BME280;53575;51.366;12.350;2022-10-20T03:36:02;101062.31;;;5.78;100.00
66681;BME280;53575;51.366;12.350;2022-10-20T03:38:27;101065.00;;;5.83;100.00
66681;BME280;53575;51.366;12.350;2022-10-20T03:40:53;101053.75;;;5.82;100.00
66681;BME280;53575;51.366;12.350;2022-10-20T03:43:18;101044.69;;;5.65;100.00
66681;BME280;53575;51.366;12.350;2022-10-20T03:45:44;101041.75;;;5.53;100.00
66681;BME280;53575;51.366;12.350;2022-10-20T03:48:10;101051.13;;;5.48;100.00
66681;BME280;53575;51.366;12.350;2022-10-20T03:50:40;101043.69;;;5.60;100.00
66681;BME280;53575;51.366;12.350;2022-10-20T03:53:06;101035.16;;;5.31;100.00
66681;BME280;53575;51.366;12.350;2022-10-20T03:55:31;101034.91;;;5.55;100.00
66681;BME280;53575;51.366;12.350;2022-10-20T03:57:57;101018.19;;;5.42;100.00
66681;BME280;53575;51.366;12.350;2022-10-20T04:00:22;101019.19;;;5.49;100.00
66681;BME280;53575;51.366;12.350;2022-10-20T04:02:48;101018.28;;;5.15;100.00
66681;BME280;53575;51.366;12.350;2022-10-20T04:05:16;101023.63;;;5.20;100.00
66681;BME280;53575;51.366;12.350;2022-10-20T04:07:42;101014.44;;;5.32;100.00
66681;BME280;53575;51.366;12.350;2022-10-20T04:10:08;101014.75;;;5.45;100.00
66681;BME280;53575;51.366;12.350;2022-10-20T04:12:34;101007.16;;;5.51;100.00
66681;BME280;53575;51.366;12.350;2022-10-20T04:14:59;101007.41;;;5.27;100.00
66681;BME280;53575;51.366;12.350;2022-10-20T04:17:25;101002.34;;;5.31;100.00
66681;BME280;53575;51.366;12.350;2022-10-20T04:19:50;101009.50;;;5.42;100.00
66681;BME280;53575;51.366;12.350;2022-10-20T04:22:15;101008.78;;;5.47;100.00
66681;BME280;53575;51.366;12.350;2022-10-20T04:24:41;101009.56;;;5.43;100.00
66681;BME280;53575;51.366;12.350;2022-10-20T04:27:06;101005.06;;;5.37;100.00
66681;BME280;53575;51.366;12.350;2022-10-20T04:29:32;100992.66;;;5.59;100.00
66681;BME280;53575;51.366;12.350;2022-10-20T04:31:57;100991.03;;;5.29;100.00
66681;BME280;53575;51.366;12.350;2022-10-20T04:34:23;100984.34;;;5.37;100.00
66681;BME280;53575;51.366;12.350;2022-10-20T04:36:48;100992.53;;;5.20;100.00
66681;BME280;53575;51.366;12.350;2022-10-20T04:39:13;100986.88;;;5.34;100.00
66681;BME280;53575;51.366;12.350;2022-10-20T04:41:39;100985.38;;;5.44;100.00
66681;BME280;53575;51.366;12.350;2022-10-20T04:44:05;100980.03;;;4.73;100.00
66681;BME280;53575;51.366;12.350;2022-10-20T04:46:30;100981.22;;;4.54;100.00
66681;BME280;53575;51.366;12.350;2022-10-20T04:48:55;100982.47;;;4.69;100.00
66681;BME280;53575;51.366;12.350;2022-10-20T04:51:21;100981.16;;;4.53;100.00
66681;BME280;53575;51.366;12.350;2022-10-20T04:53:46;100981.47;;;4.94;100.00
66681;BME280;53575;51.366;12.350;2022-10-20T04:56:14;100984.56;;;5.12;100.00
66681;BME280;53575;51.366;12.350;2022-10-20T04:58:49;100986.53;;;5.22;100.00
66681;BME280;53575;51.366;12.350;2022-10-20T05:01:16;100988.25;;;5.22;100.00
66681;BME280;53575;51.366;12.350;2022-10-20T05:03:42;100989.97;;;5.21;100.00
66681;BME280;53575;51.366;12.350;2022-10-20T05:06:12;100976.44;;;5.00;100.00
66681;BME280;53575;51.366;12.350;2022-10-20T05:08:39;100973.25;;;5.10;100.00
66681;BME280;53575;51.366;12.350;2022-10-20T05:11:05;100972.69;;;5.20;100.00
66681;BME280;53575;51.366;12.350;2022-10-20T05:13:31;100974.19;;;5.12;100.00
66681;BME280;53575;51.366;12.350;2022-10-20T05:15:56;100964.78;;;5.16;100.00
66681;BME280;53575;51.366;12.350;2022-10-20T05:18:22;100957.63;;;5.07;100.00
66681;BME280;53575;51.366;12.350;2022-10-20T05:20:47;100952.09;;;4.93;100.00
66681;BME280;53575;51.366;12.350;2022-10-20T05:23:12;100954.50;;;4.87;100.00
66681;BME280;53575;51.366;12.350;2022-10-20T05:25:38;100954.72;;;4.95;100.00
66681;BME280;53575;51.366;12.350;2022-10-20T05:28:04;100954.31;;;4.79;100.00
66681;BME280;53575;51.366;12.350;2022-10-20T05:30:33;100957.97;;;5.19;100.00
66681;BME280;53575;51.366;12.350;2022-10-20T05:32:58;100959.72;;;5.20;100.00
66681;BME280;53575;51.366;12.350;2022-10-20T05:35:23;100947.75;;;5.25;100.00
66681;BME280;53575;51.366;12.350;2022-10-20T05:37:49;100947.03;;;4.98;100.00
66681;BME280;53575;51.366;12.350;2022-10-20T05:40:14;100940.16;;;5.00;100.00
66681;BME280;53575;51.366;12.350;2022-10-20T05:42:39;100951.66;;;5.43;100.00
66681;BME280;53575;51.366;12.350;2022-10-20T05:45:05;100951.56;;;5.05;100.00
66681;BME280;53575;51.366;12.350;2022-10-20T05:47:32;100948.56;;;4.89;100.00
66681;BME280;53575;51.366;12.350;2022-10-20T05:49:57;100938.81;;;5.12;100.00
66681;BME280;53575;51.366;12.350;2022-10-20T05:52:22;100949.97;;;4.78;100.00
66681;BME280;53575;51.366;12.350;2022-10-20T05:54:48;100950.28;;;4.91;100.00
66681;BME280;53575;51.366;12.350;2022-10-20T05:57:13;100952.78;;;5.19;100.00
66681;BME280;53575;51.366;12.350;2022-10-20T05:59:38;100961.84;;;5.36;100.00
66681;BME280;53575;51.366;12.350;2022-10-20T06:02:04;100973.38;;;5.14;100.00
66681;BME280;53575;51.366;12.350;2022-10-20T06:04:29;100968.06;;;5.08;100.00
66681;BME280;53575;51.366;12.350;2022-10-20T06:06:55;100965.31;;;5.37;100.00
66681;BME280;53575;51.366;12.350;2022-10-20T06:09:22;100967.59;;;5.58;100.00
66681;BME280;53575;51.366;12.350;2022-10-20T06:11:48;100967.81;;;5.32;100.00
66681;BME280;53575;51.366;12.350;2022-10-20T06:14:14;100973.25;;;5.10;100.00
66681;BME280;53575;51.366;12.350;2022-10-20T06:16:40;100962.81;;;5.40;100.00
66681;BME280;53575;51.366;12.350;2022-10-20T06:19:05;100973.94;;;5.71;100.00
66681;BME280;53575;51.366;12.350;2022-10-20T06:21:32;100964.13;;;5.57;100.00
66681;BME280;53575;51.366;12.350;2022-10-20T06:23:59;100968.69;;;5.33;100.00
66681;BME280;53575;51.366;12.350;2022-10-20T06:26:27;100966.16;;;5.03;100.00
66681;BME280;53575;51.366;12.350;2022-10-20T06:29:04;100960.41;;;5.48;100.00
66681;BME280;53575;51.366;12.350;2022-10-20T06:31:35;100960.06;;;5.34;100.00
66681;BME280;53575;51.366;12.350;2022-10-20T06:34:07;100967.03;;;5.03;100.00
66681;BME280;53575;51.366;12.350;2022-10-20T06:36:35;100970.47;;;5.02;100.00
66681;BME280;53575;51.366;12.350;2022-10-20T06:39:02;100972.47;;;5.46;100.00
66681;BME280;53575;51.366;12.350;2022-10-20T06:41:29;100968.28;;;5.52;100.00
66681;BME280;53575;51.366;12.350;2022-10-20T06:43:54;100968.03;;;5.76;100.00
66681;BME280;53575;51.366;12.350;2022-10-20T06:46:25;100974.03;;;5.75;100.00
66681;BME280;53575;51.366;12.350;2022-10-20T06:48:50;100967.31;;;5.83;100.00
66681;BME280;53575;51.366;12.350;2022-10-20T06:51:17;100970.75;;;5.81;100.00
66681;BME280;53575;51.366;12.350;2022-10-20T06:53:44;100965.38;;;5.75;100.00
66681;BME280;53575;51.366;12.350;2022-10-20T06:56:11;100966.06;;;5.66;100.00
66681;BME280;53575;51.366;12.350;2022-10-20T06:58:38;100968.56;;;5.63;100.00
66681;BME280;53575;51.366;12.350;2022-10-20T07:03:32;100961.78;;;6.03;100.00
66681;BME280;53575;51.366;12.350;2022-10-20T07:05:58;100964.50;;;6.09;100.00
66681;BME280;53575;51.366;12.350;2022-10-20T07:08:26;100968.03;;;6.13;100.00
66681;BME280;53575;51.366;12.350;2022-10-20T07:11:03;100960.44;;;6.22;100.00
66681;BME280;53575;51.366;12.350;2022-10-20T07:13:29;100963.19;;;6.29;100.00
66681;BME280;53575;51.366;12.350;2022-10-20T07:15:56;100961.53;;;6.31;100.00
66681;BME280;53575;51.366;12.350;2022-10-20T07:18:23;100968.59;;;6.39;100.00
66681;BME280;53575;51.366;12.350;2022-10-20T07:20:48;100959.41;;;6.53;100.00
66681;BME280;53575;51.366;12.350;2022-10-20T07:23:14;100953.50;;;6.62;100.00
66681;BME280;53575;51.366;12.350;2022-10-20T07:25:39;100941.69;;;6.77;100.00
66681;BME280;53575;51.366;12.350;2022-10-20T07:28:04;100941.06;;;6.45;100.00
66681;BME280;53575;51.366;12.350;2022-10-20T07:30:30;100942.25;;;6.63;100.00
66681;BME280;53575;51.366;12.350;2022-10-20T07:32:55;100936.47;;;6.76;100.00
66681;BME280;53575;51.366;12.350;2022-10-20T07:35:20;100927.31;;;6.95;100.00
66681;BME280;53575;51.366;12.350;2022-10-20T07:37:46;100936.78;;;6.93;100.00
66681;BME280;53575;51.366;12.350;2022-10-20T07:40:11;100928.53;;;7.17;100.00
66681;BME280;53575;51.366;12.350;2022-10-20T07:42:37;100921.13;;;7.37;99.13
66681;BME280;53575;51.366;12.350;2022-10-20T07:45:02;100916.28;;;7.61;100.00
66681;BME280;53575;51.366;12.350;2022-10-20T07:47:28;100931.88;;;7.60;97.68
66681;BME280;53575;51.366;12.350;2022-10-20T07:49:53;100926.50;;;7.49;99.08
66681;BME280;53575;51.366;12.350;2022-10-20T07:52:18;100919.88;;;7.68;98.42
66681;BME280;53575;51.366;12.350;2022-10-20T07:54:44;100913.94;;;7.78;99.55
66681;BME280;53575;51.366;12.350;2022-10-20T07:57:09;100913.06;;;7.76;97.29
66681;BME280;53575;51.366;12.350;2022-10-20T07:59:35;100907.16;;;7.89;95.08
66681;BME280;53575;51.366;12.350;2022-10-20T08:02:00;100909.00;;;7.96;95.52
66681;BME280;53575;51.366;12.350;2022-10-20T08:04:26;100917.56;;;7.88;95.48
66681;BME280;53575;51.366;12.350;2022-10-20T08:06:51;100913.44;;;8.05;94.96
66681;BME280;53575;51.366;12.350;2022-10-20T08:09:17;100905.72;;;8.10;96.25
66681;BME280;53575;51.366;12.350;2022-10-20T08:11:42;100906.44;;;8.01;95.31
66681;BME280;53575;51.366;12.350;2022-10-20T08:14:08;100911.75;;;8.09;94.90
66681;BME280;53575;51.366;12.350;2022-10-20T08:16:33;100910.31;;;8.29;95.60
66681;BME280;53575;51.366;12.350;2022-10-20T08:18:59;100904.19;;;8.27;93.76
66681;BME280;53575;51.366;12.350;2022-10-20T08:21:24;100912.22;;;8.42;92.96
66681;BME280;53575;51.366;12.350;2022-10-20T08:23:50;100899.25;;;8.45;92.33
66681;BME280;53575;51.366;12.350;2022-10-20T08:26:18;100896.56;;;8.38;92.04
66681;BME280;53575;51.366;12.350;2022-10-20T08:28:44;100891.44;;;8.44;93.50
66681;BME280;53575;51.366;12.350;2022-10-20T08:31:10;100886.19;;;8.41;92.65
66681;BME280;53575;51.366;12.350;2022-10-20T08:33:35;100887.78;;;8.33;92.97
66681;BME280;53575;51.366;12.350;2022-10-20T08:36:05;100879.19;;;8.38;94.98
66681;BME280;53575;51.366;12.350;2022-10-20T08:38:31;100878.59;;;8.61;96.53
66681;BME280;53575;51.366;12.350;2022-10-20T08:40:57;100869.94;;;8.65;93.59
66681;BME280;53575;51.366;12.350;2022-10-20T08:43:24;100865.50;;;8.54;95.03
66681;BME280;53575;51.366;12.350;2022-10-20T08:45:49;100872.44;;;8.54;95.11
66681;BME280;53575;51.366;12.350;2022-10-20T08:48:19;100863.00;;;8.64;94.91
66681;BME280;53575;51.366;12.350;2022-10-20T08:50:46;100865.56;;;8.62;95.04
66681;BME280;53575;51.366;12.350;2022-10-20T08:53:13;100864.91;;;8.80;92.63
66681;BME280;53575;51.366;12.350;2022-10-20T08:55:38;100866.63;;;8.79;92.52
66681;BME280;53575;51.366;12.350;2022-10-20T08:58:09;100859.59;;;8.72;92.75
66681;BME280;53575;51.366;12.350;2022-10-20T09:00:36;100864.94;;;8.85;92.99
66681;BME280;53575;51.366;12.350;2022-10-20T09:03:26;100858.13;;;8.97;90.43
66681;BME280;53575;51.366;12.350;2022-10-20T09:05:59;100859.97;;;9.09;88.88
66681;BME280;53575;51.366;12.350;2022-10-20T09:08:28;100865.97;;;9.00;89.60
66681;BME280;53575;51.366;12.350;2022-10-20T09:10:55;100846.13;;;9.16;90.81
66681;BME280;53575;51.366;12.350;2022-10-20T09:13:29;100834.81;;;9.17;90.17
66681;BME280;53575;51.366;12.350;2022-10-20T09:15:59;100836.59;;;9.20;89.61
66681;BME280;53575;51.366;12.350;2022-10-20T09:18:28;100833.16;;;9.25;89.14
66681;BME280;53575;51.366;12.350;2022-10-20T09:20:57;100833.28;;;9.45;87.98
66681;BME280;53575;51.366;12.350;2022-10-20T09:23:36;100822.91;;;9.55;88.51
66681;BME280;53575;51.366;12.350;2022-10-20T09:26:02;100812.53;;;9.65;87.76
66681;BME280;53575;51.366;12.350;2022-10-20T09:28:28;100815.16;;;9.68;87.47
66681;BME280;53575;51.366;12.350;2022-10-20T09:30:55;100818.72;;;9.81;86.02
66681;BME280;53575;51.366;12.350;2022-10-20T09:33:29;100811.78;;;9.86;85.75
66681;BME280;53575;51.366;12.350;2022-10-20T09:36:11;100807.47;;;9.93;84.55
66681;BME280;53575;51.366;12.350;2022-10-20T09:38:42;100810.16;;;10.13;84.89
66681;BME280;53575;51.366;12.350;2022-10-20T09:41:22;100802.34;;;10.19;82.76
66681;BME280;53575;51.366;12.350;2022-10-20T09:43:58;100786.69;;;10.23;82.38
66681;BME280;53575;51.366;12.350;2022-10-20T09:46:31;100784.13;;;10.36;81.97
66681;BME280;53575;51.366;12.350;2022-10-20T09:49:00;100780.69;;;10.55;81.68
66681;BME280;53575;51.366;12.350;2022-10-20T09:51:26;100785.06;;;10.62;80.69
66681;BME280;53575;51.366;12.350;2022-10-20T09:54:15;100791.16;;;10.66;81.10
66681;BME280;53575;51.366;12.350;2022-10-20T09:56:43;100781.56;;;10.79;80.13
66681;BME280;53575;51.366;12.350;2022-10-20T09:59:35;100777.22;;;10.82;80.86
66681;BME280;53575;51.366;12.350;2022-10-20T10:04:49;100769.38;;;11.05;78.93
66681;BME280;53575;51.366;12.350;2022-10-20T10:09:55;100767.59;;;11.29;76.78
66681;BME280;53575;51.366;12.350;2022-10-20T10:12:22;100755.34;;;11.40;76.48
66681;BME280;53575;51.366;12.350;2022-10-20T10:14:53;100750.97;;;11.51;75.61
66681;BME280;53575;51.366;12.350;2022-10-20T10:17:39;100750.00;;;11.77;74.72
66681;BME280;53575;51.366;12.350;2022-10-20T10:20:28;100744.75;;;11.87;75.28
66681;BME280;53575;51.366;12.350;2022-10-20T10:23:17;100748.19;;;11.97;73.20
66681;BME280;53575;51.366;12.350;2022-10-20T10:25:43;100748.13;;;12.09;72.55
66681;BME280;53575;51.366;12.350;2022-10-20T10:28:38;100742.88;;;12.12;71.85
66681;BME280;53575;51.366;12.350;2022-10-20T10:33:41;100735.84;;;12.20;70.99
66681;BME280;53575;51.366;12.350;2022-10-20T10:36:30;100733.19;;;12.30;70.81
66681;BME280;53575;51.366;12.350;2022-10-20T10:38:56;100721.78;;;12.37;71.02
66681;BME280;53575;51.366;12.350;2022-10-20T10:47:02;100716.22;;;12.78;70.05
66681;BME280;53575;51.366;12.350;2022-10-20T10:49:50;100718.66;;;12.95;69.41
66681;BME280;53575;51.366;12.350;2022-10-20T11:06:05;100705.81;;;13.55;65.96
66681;BME280;53575;51.366;12.350;2022-10-20T11:09:01;100687.34;;;13.61;67.33
66681;BME280;53575;51.366;12.350;2022-10-20T11:11:42;100690.81;;;13.63;65.51
66681;BME280;53575;51.366;12.350;2022-10-20T11:19:35;100676.56;;;13.83;65.38
66681;BME280;53575;51.366;12.350;2022-10-20T11:27:39;100659.78;;;13.93;65.74
66681;BME280;53575;51.366;12.350;2022-10-20T11:30:12;100651.81;;;14.01;66.40
66681;BME280;53575;51.366;12.350;2022-10-20T11:36:02;100644.63;;;14.12;65.48
66681;BME280;53575;51.366;12.350;2022-10-20T11:38:48;100639.16;;;14.23;65.53
66681;BME280;53575;51.366;12.350;2022-10-20T11:41:30;100625.16;;;14.24;66.43
66681;BME280;53575;51.366;12.350;2022-10-20T11:44:21;100639.88;;;14.35;65.37
66681;BME280;53575;51.366;12.350;2022-10-20T11:46:53;100635.28;;;14.47;65.23
66681;BME280;53575;51.366;12.350;2022-10-20T11:49:20;100630.75;;;14.56;64.73
66681;BME280;53575;51.366;12.350;2022-10-20T11:54:57;100623.47;;;14.72;64.36
66681;BME280;53575;51.366;12.350;2022-10-20T12:15:57;100561.78;;;15.71;61.81
66681;BME280;53575;51.366;12.350;2022-10-20T12:18:26;100558.06;;;15.79;61.21
66681;BME280;53575;51.366;12.350;2022-10-20T12:20:58;100548.97;;;15.93;60.97
66681;BME280;53575;51.366;12.350;2022-10-20T12:27:18;100545.84;;;16.13;60.84
66681;BME280;53575;51.366;12.350;2022-10-20T12:37:17;100523.41;;;15.95;61.88
66681;BME280;53575;51.366;12.350;2022-10-20T12:39:45;100519.31;;;16.19;60.87
66681;BME280;53575;51.366;12.350;2022-10-20T12:42:31;100510.94;;;16.03;60.65
66681;BME280;53575;51.366;12.350;2022-10-20T12:47:48;100518.88;;;15.64;62.36
66681;BME280;53575;51.366;12.350;2022-10-20T12:55:44;100531.59;;;15.45;63.68
66681;BME280;53575;51.366;12.350;2022-10-20T13:03:45;100513.97;;;15.86;62.12
66681;BME280;53575;51.366;12.350;2022-10-20T13:16:50;100515.56;;;16.27;62.08
66681;BME280;53575;51.366;12.350;2022-10-20T13:19:55;100519.41;;;16.48;60.63
66681;BME280;53575;51.366;12.350;2022-10-20T13:22:43;100521.06;;;16.52;60.91
66681;BME280;53575;51.366;12.350;2022-10-20T13:25:15;100521.78;;;16.57;61.16
66681;BME280;53575;51.366;12.350;2022-10-20T13:27:42;100504.84;;;16.66;59.94
66681;BME280;53575;51.366;12.350;2022-10-20T13:30:09;100513.72;;;16.64;60.42
66681;BME280;53575;51.366;12.350;2022-10-20T13:32:48;100499.00;;;16.55;60.91
66681;BME280;53575;51.366;12.350;2022-10-20T13:35:26;100490.88;;;16.63;60.60
66681;BME280;53575;51.366;12.350;2022-10-20T13:38:25;100485.44;;;16.69;60.45
66681;BME280;53575;51.366;12.350;2022-10-20T13:41:06;100479.53;;;16.59;60.45
66681;BME280;53575;51.366;12.350;2022-10-20T13:43:58;100484.78;;;16.61;60.39
66681;BME280;53575;51.366;12.350;2022-10-20T13:51:57;100454.50;;;16.74;60.01
66681;BME280;53575;51.366;12.350;2022-10-20T13:54:29;100460.66;;;16.74;59.84
66681;BME280;53575;51.366;12.350;2022-10-20T13:56:55;100455.34;;;16.76;59.65
66681;BME280;53575;51.366;12.350;2022-10-20T13:59:26;100449.41;;;16.68;59.83
66681;BME280;53575;51.366;12.350;2022-10-20T14:01:55;100445.16;;;16.62;59.52
66681;BME280;53575;51.366;12.350;2022-10-20T14:04:32;100444.88;;;16.42;60.09
66681;BME280;53575;51.366;12.350;2022-10-20T14:07:13;100451.16;;;16.36;60.15
66681;BME280;53575;51.366;12.350;2022-10-20T14:09:40;100452.84;;;16.39;59.25
66681;BME280;53575;51.366;12.350;2022-10-20T14:12:16;100459.16;;;16.33;56.71
66681;BME280;53575;51.366;12.350;2022-10-20T14:14:45;100468.22;;;16.23;56.13
66681;BME280;53575;51.366;12.350;2022-10-20T14:17:18;100470.09;;;16.19;54.74
66681;BME280;53575;51.366;12.350;2022-10-20T14:19:44;100470.25;;;16.13;56.08
66681;BME280;53575;51.366;12.350;2022-10-20T14:22:11;100472.06;;;16.11;55.53
66681;BME280;53575;51.366;12.350;2022-10-20T14:24:44;100471.34;;;16.04;53.37
66681;BME280;53575;51.366;12.350;2022-10-20T14:27:23;100457.47;;;15.98;53.68
66681;BME280;53575;51.366;12.350;2022-10-20T14:29:50;100455.09;;;15.87;51.79
66681;BME280;53575;51.366;12.350;2022-10-20T14:32:19;100460.16;;;15.59;52.05
66681;BME280;53575;51.366;12.350;2022-10-20T14:34:55;100453.66;;;15.38;53.27
66681;BME280;53575;51.366;12.350;2022-10-20T14:37:30;100442.47;;;15.28;53.03
66681;BME280;53575;51.366;12.350;2022-10-20T14:39:59;100436.53;;;15.20;52.28
66681;BME280;53575;51.366;12.350;2022-10-20T14:42:28;100440.97;;;15.17;51.38
66681;BME280;53575;51.366;12.350;2022-10-20T14:44:55;100446.75;;;14.94;51.87
66681;BME280;53575;51.366;12.350;2022-10-20T14:47:22;100441.88;;;14.77;52.55
66681;BME280;53575;51.366;12.350;2022-10-20T14:49:50;100444.69;;;14.68;53.68
66681;BME280;53575;51.366;12.350;2022-10-20T14:54:43;100444.03;;;14.56;52.47
66681;BME280;53575;51.366;12.350;2022-10-20T14:59:48;100428.78;;;14.29;52.38